createdAt,value
2018-05-27T00:01:36.569Z,21.18
2018-05-27T00:05:39.050Z,21.13
2018-05-27T00:09:41.518Z,21.09
2018-05-27T00:13:44.010Z,21.02
2018-05-27T00:17:46.508Z,20.93
2018-05-27T00:21:48.991Z,20.86
2018-05-27T00:25:51.510Z,20.78
2018-05-27T00:29:54.014Z,20.71
2018-05-27T00:33:56.489Z,20.63
2018-05-27T00:37:58.974Z,20.57
2018-05-27T00:42:01.438Z,20.51
2018-05-27T00:46:03.935Z,20.47
2018-05-27T00:50:06.579Z,20.42
2018-05-27T00:54:09.067Z,20.37
2018-05-27T00:58:11.550Z,20.32
2018-05-27T01:02:14.058Z,20.28
2018-05-27T01:06:16.531Z,20.24
2018-05-27T01:10:19.018Z,20.19
2018-05-27T01:14:21.537Z,20.17
2018-05-27T01:18:24.064Z,20.15
2018-05-27T01:22:26.547Z,20.13
2018-05-27T01:26:29.019Z,20.13
2018-05-27T01:30:31.502Z,20.10
2018-05-27T01:34:34.011Z,20.06
2018-05-27T01:38:36.470Z,20.00
2018-05-27T01:42:38.998Z,19.95
2018-05-27T01:46:41.462Z,19.90
2018-05-27T01:50:43.975Z,19.88
2018-05-27T01:54:46.478Z,19.84
2018-05-27T01:58:48.955Z,19.78
2018-05-27T02:02:51.455Z,19.71
2018-05-27T02:06:53.972Z,19.65
2018-05-27T02:10:56.430Z,19.59
2018-05-27T02:14:58.923Z,19.53
2018-05-27T02:19:01.385Z,19.50
2018-05-27T02:23:03.876Z,19.51
2018-05-27T02:27:06.339Z,19.52
2018-05-27T02:31:08.826Z,19.52
2018-05-27T02:35:11.311Z,19.51
2018-05-27T02:39:13.803Z,19.44
2018-05-27T02:43:16.312Z,19.38
2018-05-27T02:47:18.797Z,19.36
2018-05-27T02:51:21.286Z,19.32
2018-05-27T02:55:23.780Z,19.28
2018-05-27T02:59:26.274Z,19.26
2018-05-27T03:03:28.745Z,19.18
2018-05-27T03:07:31.228Z,19.00
2018-05-27T03:11:33.730Z,18.85
2018-05-27T03:15:36.199Z,18.72
2018-05-27T03:19:38.707Z,18.63
2018-05-27T03:23:42.062Z,18.57
2018-05-27T03:27:44.519Z,18.48
2018-05-27T03:31:47.030Z,18.44
2018-05-27T03:35:49.511Z,18.48
2018-05-27T03:39:52.026Z,18.51
2018-05-27T03:43:54.482Z,18.44
2018-05-27T03:47:56.972Z,18.40
2018-05-27T03:51:59.471Z,18.42
2018-05-27T03:56:01.957Z,18.45
2018-05-27T04:00:04.455Z,18.47
2018-05-27T04:04:18.607Z,18.49
2018-05-27T04:08:35.956Z,18.55
2018-05-27T04:12:38.460Z,18.61
2018-05-27T04:16:40.967Z,18.66
2018-05-27T04:20:43.463Z,18.72
2018-05-27T04:24:45.951Z,18.74
2018-05-27T04:28:48.424Z,18.79
2018-05-27T04:32:50.918Z,18.87
2018-05-27T04:36:53.407Z,18.93
2018-05-27T04:40:55.898Z,18.98
2018-05-27T04:44:58.381Z,19.06
2018-05-27T04:49:00.861Z,19.11
2018-05-27T04:53:03.358Z,19.16
2018-05-27T04:57:05.850Z,19.23
2018-05-27T05:01:08.338Z,19.33
2018-05-27T05:05:10.793Z,19.45
2018-05-27T05:09:13.275Z,19.52
2018-05-27T05:13:15.730Z,19.57
2018-05-27T05:17:18.210Z,19.63
2018-05-27T05:21:20.674Z,19.72
2018-05-27T05:25:23.170Z,19.80
2018-05-27T05:29:25.674Z,19.88
2018-05-27T05:33:28.157Z,20.03
2018-05-27T05:37:30.645Z,20.15
2018-05-27T05:41:33.136Z,20.35
2018-05-27T05:45:35.668Z,20.54
2018-05-27T05:49:38.132Z,20.71
2018-05-27T05:53:40.622Z,20.82
2018-05-27T05:57:43.123Z,20.90
2018-05-27T06:01:45.602Z,20.98
2018-05-27T06:05:48.089Z,21.20
2018-05-27T06:09:50.576Z,21.41
2018-05-27T06:13:53.111Z,21.53
2018-05-27T06:17:55.629Z,21.71
2018-05-27T06:21:58.108Z,21.88
2018-05-27T06:26:00.592Z,22.00
2018-05-27T06:30:03.078Z,22.14
2018-05-27T06:34:05.543Z,22.27
2018-05-27T06:38:08.521Z,22.44
2018-05-27T06:42:11.008Z,22.59
2018-05-27T06:46:13.490Z,22.76
2018-05-27T06:50:16.012Z,22.94
2018-05-27T06:54:18.488Z,23.13
2018-05-27T06:58:20.987Z,23.24
2018-05-27T07:02:23.485Z,23.37
2018-05-27T07:06:25.963Z,23.55
2018-05-27T07:10:28.442Z,23.77
2018-05-27T07:14:30.935Z,24.01
2018-05-27T07:18:33.443Z,24.20
2018-05-27T07:22:35.911Z,24.35
2018-05-27T07:26:38.402Z,24.41
2018-05-27T07:30:40.878Z,24.56
2018-05-27T07:34:43.357Z,24.73
2018-05-27T07:38:45.824Z,24.88
2018-05-27T07:42:48.301Z,25.07
2018-05-27T07:46:50.793Z,25.16
2018-05-27T07:50:53.276Z,25.35
2018-05-27T07:54:55.764Z,25.46
2018-05-27T07:58:58.246Z,25.63
2018-05-27T08:03:00.757Z,25.73
2018-05-27T08:07:03.288Z,25.90
2018-05-27T08:11:05.755Z,26.09
2018-05-27T08:15:08.261Z,26.22
2018-05-27T08:19:10.722Z,26.27
2018-05-27T08:23:13.223Z,26.39
2018-05-27T08:27:15.701Z,26.46
2018-05-27T08:31:18.195Z,26.57
2018-05-27T08:35:20.679Z,26.69
2018-05-27T08:39:23.126Z,26.83
2018-05-27T08:43:25.647Z,26.99
2018-05-27T08:47:28.093Z,27.06
2018-05-27T08:51:30.614Z,27.10
2018-05-27T08:55:33.099Z,27.19
2018-05-27T08:59:35.571Z,27.25
2018-05-27T09:03:38.064Z,27.29
2018-05-27T09:07:40.510Z,27.44
2018-05-27T09:11:42.998Z,27.54
2018-05-27T09:15:45.489Z,27.64
2018-05-27T09:19:47.955Z,27.82
2018-05-27T09:23:50.454Z,27.89
2018-05-27T09:27:52.920Z,27.93
2018-05-27T09:31:55.422Z,28.02
2018-05-27T09:35:57.881Z,28.07
2018-05-27T09:40:00.369Z,28.12
2018-05-27T09:44:02.862Z,28.18
2018-05-27T09:48:05.326Z,28.26
2018-05-27T09:52:08.058Z,28.38
2018-05-27T09:56:10.506Z,28.48
2018-05-27T10:00:12.988Z,28.61
2018-05-27T10:04:15.463Z,28.68
2018-05-27T10:08:17.990Z,28.78
2018-05-27T10:12:20.484Z,28.79
2018-05-27T10:16:22.950Z,28.79
2018-05-27T10:20:25.445Z,28.81
2018-05-27T10:24:27.915Z,28.82
2018-05-27T10:28:30.405Z,28.89
2018-05-27T10:32:32.859Z,28.82
2018-05-27T10:36:35.346Z,28.85
2018-05-27T10:40:37.852Z,28.89
2018-05-27T10:44:40.336Z,28.91
2018-05-27T10:48:42.800Z,29.02
2018-05-27T10:52:45.275Z,29.06
2018-05-27T10:56:47.739Z,29.11
2018-05-27T11:00:50.228Z,29.06
2018-05-27T11:04:52.686Z,29.00
2018-05-27T11:08:55.174Z,29.10
2018-05-27T11:12:57.658Z,29.20
2018-05-27T11:17:00.122Z,29.22
2018-05-27T11:21:02.604Z,29.21
2018-05-27T11:25:05.072Z,29.24
2018-05-27T11:29:07.552Z,29.31
2018-05-27T11:33:10.039Z,29.33
2018-05-27T11:37:12.522Z,29.39
2018-05-27T11:41:15.018Z,29.34
2018-05-27T11:45:17.470Z,29.29
2018-05-27T11:49:19.964Z,29.29
2018-05-27T11:53:22.437Z,29.27
2018-05-27T11:57:24.926Z,29.27
2018-05-27T12:01:27.403Z,29.27
2018-05-27T12:05:29.915Z,29.31
2018-05-27T12:09:32.650Z,29.37
2018-05-27T12:13:35.018Z,29.35
2018-05-27T12:17:37.593Z,29.47
2018-05-27T12:21:40.089Z,29.45
2018-05-27T12:25:42.548Z,29.48
2018-05-27T12:29:45.059Z,29.56
2018-05-27T12:33:47.495Z,29.53
2018-05-27T12:37:49.980Z,29.51
2018-05-27T12:41:52.466Z,29.45
2018-05-27T12:45:54.953Z,29.37
2018-05-27T12:49:57.443Z,29.31
2018-05-27T12:53:59.942Z,29.29
2018-05-27T12:58:02.496Z,29.28
2018-05-27T13:02:05.005Z,29.25
2018-05-27T13:06:07.466Z,29.22
2018-05-27T13:10:09.971Z,29.14
2018-05-27T13:14:12.432Z,29.08
2018-05-27T13:18:14.913Z,29.05
2018-05-27T13:22:17.394Z,29.04
2018-05-27T13:26:19.873Z,29.01
2018-05-27T13:30:22.365Z,28.98
2018-05-27T13:34:24.869Z,28.92
2018-05-27T13:38:27.358Z,28.87
2018-05-27T13:42:29.819Z,28.84
2018-05-27T13:46:32.326Z,28.85
2018-05-27T13:50:34.816Z,28.85
2018-05-27T13:54:37.290Z,28.82
2018-05-27T13:58:39.759Z,28.82
2018-05-27T14:02:42.241Z,28.85
2018-05-27T14:06:44.824Z,28.85
2018-05-27T14:10:47.274Z,28.83
2018-05-27T14:14:49.799Z,28.77
2018-05-27T14:18:52.300Z,28.73
2018-05-27T14:22:54.767Z,28.73
2018-05-27T14:26:57.280Z,28.72
2018-05-27T14:30:59.762Z,28.67
2018-05-27T14:35:02.563Z,28.65
2018-05-27T14:39:05.959Z,28.66
2018-05-27T14:43:08.423Z,28.67
2018-05-27T14:47:10.917Z,28.69
2018-05-27T14:51:13.416Z,28.69
2018-05-27T14:55:15.874Z,28.70
2018-05-27T14:59:18.372Z,28.64
2018-05-27T15:03:20.836Z,28.59
2018-05-27T15:07:23.328Z,28.59
2018-05-27T15:11:25.787Z,28.59
2018-05-27T15:15:28.274Z,28.59
2018-05-27T15:19:30.791Z,28.59
2018-05-27T15:23:33.269Z,28.57
2018-05-27T15:27:35.717Z,28.53
2018-05-27T15:31:38.203Z,28.53
2018-05-27T15:35:40.650Z,28.55
2018-05-27T15:39:43.126Z,28.52
2018-05-27T15:43:45.612Z,28.51
2018-05-27T15:47:48.080Z,28.50
2018-05-27T15:51:50.563Z,28.46
2018-05-27T15:55:53.027Z,28.44
2018-05-27T15:59:55.514Z,28.42
2018-05-27T16:03:58.012Z,28.34
2018-05-27T16:08:00.502Z,28.34
2018-05-27T16:12:03.002Z,28.33
2018-05-27T16:16:05.459Z,28.29
2018-05-27T16:20:07.942Z,28.26
2018-05-27T16:24:10.469Z,28.22
2018-05-27T16:28:12.935Z,28.18
2018-05-27T16:32:15.426Z,28.13
2018-05-27T16:36:17.883Z,28.08
2018-05-27T16:40:20.369Z,28.05
2018-05-27T16:44:22.855Z,28.01
2018-05-27T16:48:25.348Z,27.99
2018-05-27T16:52:27.842Z,27.98
2018-05-27T16:56:31.302Z,27.92
2018-05-27T17:00:33.748Z,27.77
2018-05-27T17:04:36.229Z,27.68
2018-05-27T17:08:38.735Z,27.60
2018-05-27T17:12:41.243Z,27.50
2018-05-27T17:16:43.747Z,27.41
2018-05-27T17:20:46.226Z,27.38
2018-05-27T17:24:48.708Z,27.35
2018-05-27T17:28:51.153Z,27.28
2018-05-27T17:32:53.629Z,27.20
2018-05-27T17:36:56.123Z,27.12
2018-05-27T17:40:58.669Z,27.04
2018-05-27T17:45:01.148Z,27.00
2018-05-27T17:49:03.633Z,26.94
2018-05-27T17:53:06.115Z,26.85
2018-05-27T17:57:09.591Z,26.75
2018-05-27T18:01:12.074Z,26.71
2018-05-27T18:05:14.540Z,26.68
2018-05-27T18:09:17.021Z,26.64
2018-05-27T18:13:19.550Z,26.60
2018-05-27T18:17:22.077Z,26.54
2018-05-27T18:21:24.531Z,26.50
2018-05-27T18:25:27.007Z,26.42
2018-05-27T18:29:29.490Z,26.37
2018-05-27T18:33:32.158Z,26.32
2018-05-27T18:37:34.633Z,26.27
2018-05-27T18:41:37.124Z,26.21
2018-05-27T18:45:39.649Z,26.15
2018-05-27T18:49:42.075Z,26.08
2018-05-27T18:53:44.647Z,26.04
2018-05-27T18:57:47.131Z,25.97
2018-05-27T19:01:49.627Z,25.87
2018-05-27T19:05:52.109Z,25.77
2018-05-27T19:09:54.871Z,25.70
2018-05-27T19:13:57.349Z,25.63
2018-05-27T19:17:59.842Z,25.55
2018-05-27T19:22:02.329Z,25.45
2018-05-27T19:26:04.808Z,25.35
2018-05-27T19:30:07.324Z,25.30
2018-05-27T19:34:09.819Z,25.26
2018-05-27T19:38:12.304Z,25.22
2018-05-27T19:42:14.861Z,25.17
2018-05-27T19:46:17.289Z,25.11
2018-05-27T19:50:19.782Z,25.07
2018-05-27T19:54:22.358Z,25.07
2018-05-27T19:58:24.817Z,24.96
2018-05-27T20:02:27.303Z,24.92
2018-05-27T20:06:29.796Z,24.87
2018-05-27T20:10:32.258Z,24.81
2018-05-27T20:14:34.740Z,24.76
2018-05-27T20:18:37.231Z,24.69
2018-05-27T20:22:39.710Z,24.65
2018-05-27T20:26:42.203Z,24.64
2018-05-27T20:30:44.737Z,24.59
2018-05-27T20:34:47.202Z,24.47
2018-05-27T20:38:49.701Z,24.38
2018-05-27T20:42:52.190Z,24.25
2018-05-27T20:46:54.881Z,24.16
2018-05-27T20:50:57.388Z,24.09
2018-05-27T20:54:59.848Z,24.02
2018-05-27T20:59:02.346Z,23.93
2018-05-27T21:03:04.822Z,23.91
2018-05-27T21:07:07.318Z,23.88
2018-05-27T21:11:09.799Z,23.85
2018-05-27T21:15:13.351Z,23.84
2018-05-27T21:19:16.834Z,23.79
2018-05-27T21:23:19.321Z,23.73
2018-05-27T21:27:21.831Z,23.69
2018-05-27T21:31:26.364Z,23.67
2018-05-27T21:35:29.096Z,23.66
2018-05-27T21:39:31.586Z,23.65
2018-05-27T21:43:34.099Z,23.59
2018-05-27T21:47:36.596Z,23.53
2018-05-27T21:51:39.082Z,23.52
2018-05-27T21:55:41.573Z,23.46
2018-05-27T21:59:44.083Z,23.43
2018-05-27T22:03:48.614Z,23.37
2018-05-27T22:07:51.123Z,23.34
2018-05-27T22:11:53.709Z,23.33
2018-05-27T22:15:57.254Z,23.28
2018-05-27T22:20:04.384Z,23.16
2018-05-27T22:24:06.889Z,23.07
2018-05-27T22:28:10.317Z,23.02
2018-05-27T22:32:12.829Z,22.94
2018-05-27T22:36:15.316Z,22.85
2018-05-27T22:40:17.779Z,22.75
2018-05-27T22:44:20.271Z,22.71
2018-05-27T22:48:22.766Z,22.67
2018-05-27T22:52:25.264Z,22.64
2018-05-27T22:56:27.775Z,22.59
2018-05-27T23:00:30.273Z,22.49
2018-05-27T23:04:32.738Z,22.44
2018-05-27T23:08:35.249Z,22.37
2018-05-27T23:12:37.748Z,22.23
2018-05-27T23:16:40.255Z,22.18
2018-05-27T23:20:42.748Z,22.18
2018-05-27T23:24:45.258Z,22.17
2018-05-27T23:28:48.833Z,22.10
2018-05-27T23:32:51.948Z,22.02
2018-05-27T23:36:54.473Z,21.92
2018-05-27T23:40:59.045Z,21.84
2018-05-27T23:45:03.604Z,21.83
2018-05-27T23:49:07.207Z,21.85
2018-05-27T23:53:09.726Z,21.83
2018-05-27T23:57:13.215Z,21.73
